sensor_id;sensor_type;location;lat;lon;timestamp;P1;durP1;ratioP1;P2;durP2;ratioP2
75916;SDS011;64595;50.148;14.334;2023-05-14T00:01:51;22.15;;;14.25;;
75916;SDS011;64595;50.148;14.334;2023-05-14T00:04:16;21.70;;;13.57;;
75916;SDS011;64595;50.148;14.334;2023-05-14T00:06:42;14.50;;;11.85;;
75916;SDS011;64595;50.148;14.334;2023-05-14T00:09:07;15.23;;;11.45;;
75916;SDS011;64595;50.148;14.334;2023-05-14T00:11:33;16.50;;;10.68;;
75916;SDS011;64595;50.148;14.334;2023-05-14T00:13:58;13.27;;;10.77;;
75916;SDS011;64595;50.148;14.334;2023-05-14T00:16:25;14.38;;;11.10;;
75916;SDS011;64595;50.148;14.334;2023-05-14T00:18:50;19.10;;;13.80;;
75916;SDS011;64595;50.148;14.334;2023-05-14T00:21:16;17.63;;;12.75;;
75916;SDS011;64595;50.148;14.334;2023-05-14T00:23:41;17.25;;;13.07;;
75916;SDS011;64595;50.148;14.334;2023-05-14T00:26:07;17.23;;;12.55;;
75916;SDS011;64595;50.148;14.334;2023-05-14T00:28:32;17.88;;;11.80;;
75916;SDS011;64595;50.148;14.334;2023-05-14T00:30:58;29.83;;;21.77;;
75916;SDS011;64595;50.148;14.334;2023-05-14T00:33:32;26.30;;;18.35;;
75916;SDS011;64595;50.148;14.334;2023-05-14T00:35:57;34.28;;;25.33;;
75916;SDS011;64595;50.148;14.334;2023-05-14T00:38:22;33.30;;;24.90;;
75916;SDS011;64595;50.148;14.334;2023-05-14T00:40:48;30.08;;;20.83;;
75916;SDS011;64595;50.148;14.334;2023-05-14T00:43:13;27.42;;;19.80;;
75916;SDS011;64595;50.148;14.334;2023-05-14T00:45:39;25.27;;;19.20;;
75916;SDS011;64595;50.148;14.334;2023-05-14T00:48:04;27.90;;;18.40;;
75916;SDS011;64595;50.148;14.334;2023-05-14T00:50:31;29.27;;;20.13;;
75916;SDS011;64595;50.148;14.334;2023-05-14T00:52:57;50.03;;;32.88;;
75916;SDS011;64595;50.148;14.334;2023-05-14T00:55:23;43.33;;;28.38;;
75916;SDS011;64595;50.148;14.334;2023-05-14T00:57:49;42.97;;;27.73;;
75916;SDS011;64595;50.148;14.334;2023-05-14T01:00:15;50.60;;;32.58;;
75916;SDS011;64595;50.148;14.334;2023-05-14T01:02:41;50.65;;;32.05;;
75916;SDS011;64595;50.148;14.334;2023-05-14T01:05:07;41.72;;;28.13;;
75916;SDS011;64595;50.148;14.334;2023-05-14T01:07:37;43.40;;;27.80;;
75916;SDS011;64595;50.148;14.334;2023-05-14T01:10:07;37.75;;;25.42;;
75916;SDS011;64595;50.148;14.334;2023-05-14T01:12:37;36.95;;;26.20;;
75916;SDS011;64595;50.148;14.334;2023-05-14T01:15:05;40.00;;;25.40;;
75916;SDS011;64595;50.148;14.334;2023-05-14T01:17:36;37.85;;;25.83;;
75916;SDS011;64595;50.148;14.334;2023-05-14T01:20:03;39.55;;;26.35;;
75916;SDS011;64595;50.148;14.334;2023-05-14T01:22:31;45.15;;;27.77;;
75916;SDS011;64595;50.148;14.334;2023-05-14T01:24:56;47.97;;;28.83;;
75916;SDS011;64595;50.148;14.334;2023-05-14T01:27:23;53.55;;;31.85;;
75916;SDS011;64595;50.148;14.334;2023-05-14T01:32:17;23.30;;;15.75;;
75916;SDS011;64595;50.148;14.334;2023-05-14T01:34:44;23.75;;;15.35;;
75916;SDS011;64595;50.148;14.334;2023-05-14T01:37:11;26.90;;;16.50;;
75916;SDS011;64595;50.148;14.334;2023-05-14T01:39:38;20.67;;;15.00;;
75916;SDS011;64595;50.148;14.334;2023-05-14T01:44:38;23.17;;;15.00;;
75916;SDS011;64595;50.148;14.334;2023-05-14T01:47:04;32.80;;;20.92;;
75916;SDS011;64595;50.148;14.334;2023-05-14T01:49:29;30.55;;;19.65;;
75916;SDS011;64595;50.148;14.334;2023-05-14T01:51:55;31.35;;;20.55;;
75916;SDS011;64595;50.148;14.334;2023-05-14T01:54:20;20.88;;;13.77;;
75916;SDS011;64595;50.148;14.334;2023-05-14T01:56:47;21.45;;;13.68;;
75916;SDS011;64595;50.148;14.334;2023-05-14T01:59:12;19.60;;;12.25;;
75916;SDS011;64595;50.148;14.334;2023-05-14T02:01:38;17.92;;;12.27;;
75916;SDS011;64595;50.148;14.334;2023-05-14T02:04:03;16.83;;;12.25;;
75916;SDS011;64595;50.148;14.334;2023-05-14T02:06:29;18.70;;;12.40;;
75916;SDS011;64595;50.148;14.334;2023-05-14T02:08:54;23.48;;;15.48;;
75916;SDS011;64595;50.148;14.334;2023-05-14T02:11:20;24.48;;;16.27;;
75916;SDS011;64595;50.148;14.334;2023-05-14T02:13:46;26.17;;;17.15;;
75916;SDS011;64595;50.148;14.334;2023-05-14T02:16:12;50.78;;;26.25;;
75916;SDS011;64595;50.148;14.334;2023-05-14T02:18:37;79.40;;;35.83;;
75916;SDS011;64595;50.148;14.334;2023-05-14T02:21:03;65.68;;;31.35;;
75916;SDS011;64595;50.148;14.334;2023-05-14T02:23:28;32.47;;;17.88;;
75916;SDS011;64595;50.148;14.334;2023-05-14T02:25:54;47.42;;;25.38;;
75916;SDS011;64595;50.148;14.334;2023-05-14T02:28:19;33.70;;;18.23;;
75916;SDS011;64595;50.148;14.334;2023-05-14T02:30:46;17.17;;;12.38;;
75916;SDS011;64595;50.148;14.334;2023-05-14T02:33:12;17.20;;;12.18;;
75916;SDS011;64595;50.148;14.334;2023-05-14T02:35:37;14.70;;;11.18;;
75916;SDS011;64595;50.148;14.334;2023-05-14T02:38:03;18.92;;;11.65;;
75916;SDS011;64595;50.148;14.334;2023-05-14T02:40:28;15.77;;;10.80;;
75916;SDS011;64595;50.148;14.334;2023-05-14T02:42:53;20.42;;;12.95;;
75916;SDS011;64595;50.148;14.334;2023-05-14T02:45:19;22.92;;;15.20;;
75916;SDS011;64595;50.148;14.334;2023-05-14T02:47:46;25.65;;;15.30;;
75916;SDS011;64595;50.148;14.334;2023-05-14T02:50:11;28.58;;;16.02;;
75916;SDS011;64595;50.148;14.334;2023-05-14T02:52:37;29.63;;;17.00;;
75916;SDS011;64595;50.148;14.334;2023-05-14T02:55:02;32.03;;;18.55;;
75916;SDS011;64595;50.148;14.334;2023-05-14T02:57:29;29.83;;;18.42;;
75916;SDS011;64595;50.148;14.334;2023-05-14T02:59:54;37.53;;;21.23;;
75916;SDS011;64595;50.148;14.334;2023-05-14T03:02:19;32.30;;;19.17;;
75916;SDS011;64595;50.148;14.334;2023-05-14T03:04:46;23.08;;;15.27;;
75916;SDS011;64595;50.148;14.334;2023-05-14T03:07:12;18.35;;;13.20;;
75916;SDS011;64595;50.148;14.334;2023-05-14T03:09:37;17.92;;;12.98;;
75916;SDS011;64595;50.148;14.334;2023-05-14T03:12:03;17.17;;;11.75;;
75916;SDS011;64595;50.148;14.334;2023-05-14T03:14:28;17.10;;;12.05;;
75916;SDS011;64595;50.148;14.334;2023-05-14T03:16:54;17.17;;;11.90;;
75916;SDS011;64595;50.148;14.334;2023-05-14T03:19:19;19.80;;;11.73;;
75916;SDS011;64595;50.148;14.334;2023-05-14T03:21:46;18.48;;;12.02;;
75916;SDS011;64595;50.148;14.334;2023-05-14T03:24:12;15.30;;;11.00;;
75916;SDS011;64595;50.148;14.334;2023-05-14T03:26:37;14.77;;;10.45;;
75916;SDS011;64595;50.148;14.334;2023-05-14T03:29:03;14.80;;;10.43;;
75916;SDS011;64595;50.148;14.334;2023-05-14T03:31:28;14.75;;;10.25;;
75916;SDS011;64595;50.148;14.334;2023-05-14T03:33:53;14.75;;;10.27;;
75916;SDS011;64595;50.148;14.334;2023-05-14T03:36:19;15.65;;;10.38;;
75916;SDS011;64595;50.148;14.334;2023-05-14T03:38:46;15.60;;;11.45;;
75916;SDS011;64595;50.148;14.334;2023-05-14T03:41:11;14.02;;;10.30;;
75916;SDS011;64595;50.148;14.334;2023-05-14T03:43:37;16.02;;;10.27;;
75916;SDS011;64595;50.148;14.334;2023-05-14T03:46:02;13.80;;;9.93;;
75916;SDS011;64595;50.148;14.334;2023-05-14T03:48:28;13.93;;;10.77;;
75916;SDS011;64595;50.148;14.334;2023-05-14T03:50:53;13.85;;;10.57;;
75916;SDS011;64595;50.148;14.334;2023-05-14T03:53:19;15.27;;;10.82;;
75916;SDS011;64595;50.148;14.334;2023-05-14T03:55:45;15.32;;;10.90;;
75916;SDS011;64595;50.148;14.334;2023-05-14T03:58:11;19.70;;;11.13;;
75916;SDS011;64595;50.148;14.334;2023-05-14T04:00:36;15.20;;;10.65;;
75916;SDS011;64595;50.148;14.334;2023-05-14T04:03:02;17.92;;;11.45;;
75916;SDS011;64595;50.148;14.334;2023-05-14T04:05:27;17.33;;;10.38;;
75916;SDS011;64595;50.148;14.334;2023-05-14T04:07:53;16.15;;;11.07;;
75916;SDS011;64595;50.148;14.334;2023-05-14T04:10:18;15.55;;;10.73;;
75916;SDS011;64595;50.148;14.334;2023-05-14T04:12:45;14.48;;;10.82;;
75916;SDS011;64595;50.148;14.334;2023-05-14T04:15:10;18.45;;;11.13;;
75916;SDS011;64595;50.148;14.334;2023-05-14T04:17:36;16.77;;;10.52;;
75916;SDS011;64595;50.148;14.334;2023-05-14T04:20:02;18.27;;;10.68;;
75916;SDS011;64595;50.148;14.334;2023-05-14T04:22:28;16.52;;;10.75;;
75916;SDS011;64595;50.148;14.334;2023-05-14T04:24:53;18.17;;;11.15;;
75916;SDS011;64595;50.148;14.334;2023-05-14T04:27:19;13.43;;;9.93;;
75916;SDS011;64595;50.148;14.334;2023-05-14T04:29:46;14.70;;;11.27;;
75916;SDS011;64595;50.148;14.334;2023-05-14T04:32:11;16.27;;;10.77;;
75916;SDS011;64595;50.148;14.334;2023-05-14T04:34:37;14.40;;;10.93;;
75916;SDS011;64595;50.148;14.334;2023-05-14T04:37:02;16.02;;;11.15;;
75916;SDS011;64595;50.148;14.334;2023-05-14T04:39:28;17.30;;;11.68;;
75916;SDS011;64595;50.148;14.334;2023-05-14T04:41:54;26.73;;;21.02;;
75916;SDS011;64595;50.148;14.334;2023-05-14T04:44:19;25.80;;;20.17;;
75916;SDS011;64595;50.148;14.334;2023-05-14T04:46:46;26.23;;;19.75;;
75916;SDS011;64595;50.148;14.334;2023-05-14T04:49:12;22.55;;;16.58;;
75916;SDS011;64595;50.148;14.334;2023-05-14T04:51:37;22.75;;;18.08;;
75916;SDS011;64595;50.148;14.334;2023-05-14T04:54:03;20.63;;;15.73;;
75916;SDS011;64595;50.148;14.334;2023-05-14T04:56:28;18.55;;;13.98;;
75916;SDS011;64595;50.148;14.334;2023-05-14T04:58:54;19.50;;;14.55;;
75916;SDS011;64595;50.148;14.334;2023-05-14T05:01:19;18.05;;;13.95;;
75916;SDS011;64595;50.148;14.334;2023-05-14T05:03:46;19.58;;;14.10;;
75916;SDS011;64595;50.148;14.334;2023-05-14T05:06:12;18.20;;;13.88;;
75916;SDS011;64595;50.148;14.334;2023-05-14T05:08:37;16.77;;;13.57;;
75916;SDS011;64595;50.148;14.334;2023-05-14T05:11:03;20.52;;;12.55;;
75916;SDS011;64595;50.148;14.334;2023-05-14T05:13:28;17.70;;;13.65;;
75916;SDS011;64595;50.148;14.334;2023-05-14T05:15:54;16.60;;;13.50;;
75916;SDS011;64595;50.148;14.334;2023-05-14T05:18:19;15.38;;;13.13;;
75916;SDS011;64595;50.148;14.334;2023-05-14T05:20:46;16.50;;;12.45;;
75916;SDS011;64595;50.148;14.334;2023-05-14T05:23:12;14.63;;;12.50;;
75916;SDS011;64595;50.148;14.334;2023-05-14T05:25:37;17.63;;;13.07;;
75916;SDS011;64595;50.148;14.334;2023-05-14T05:28:03;15.70;;;11.65;;
75916;SDS011;64595;50.148;14.334;2023-05-14T05:30:29;16.00;;;11.50;;
75916;SDS011;64595;50.148;14.334;2023-05-14T05:32:54;14.52;;;11.35;;
75916;SDS011;64595;50.148;14.334;2023-05-14T05:35:20;16.08;;;12.48;;
75916;SDS011;64595;50.148;14.334;2023-05-14T05:37:46;14.18;;;12.13;;
75916;SDS011;64595;50.148;14.334;2023-05-14T05:40:12;18.23;;;12.57;;
75916;SDS011;64595;50.148;14.334;2023-05-14T05:42:37;15.10;;;11.70;;
75916;SDS011;64595;50.148;14.334;2023-05-14T05:45:03;17.45;;;12.02;;
75916;SDS011;64595;50.148;14.334;2023-05-14T05:47:30;15.95;;;12.57;;
75916;SDS011;64595;50.148;14.334;2023-05-14T05:49:55;16.00;;;12.40;;
75916;SDS011;64595;50.148;14.334;2023-05-14T05:52:21;13.95;;;11.65;;
75916;SDS011;64595;50.148;14.334;2023-05-14T05:54:47;14.35;;;11.23;;
75916;SDS011;64595;50.148;14.334;2023-05-14T05:57:13;16.25;;;12.65;;
75916;SDS011;64595;50.148;14.334;2023-05-14T05:59:38;14.63;;;11.52;;
75916;SDS011;64595;50.148;14.334;2023-05-14T06:02:04;14.38;;;11.85;;
75916;SDS011;64595;50.148;14.334;2023-05-14T06:04:29;13.52;;;11.00;;
75916;SDS011;64595;50.148;14.334;2023-05-14T06:06:55;14.02;;;11.15;;
75916;SDS011;64595;50.148;14.334;2023-05-14T06:09:20;15.25;;;11.32;;
75916;SDS011;64595;50.148;14.334;2023-05-14T06:11:47;14.38;;;11.77;;
75916;SDS011;64595;50.148;14.334;2023-05-14T06:14:13;14.82;;;10.68;;
75916;SDS011;64595;50.148;14.334;2023-05-14T06:16:39;15.65;;;11.38;;
75916;SDS011;64595;50.148;14.334;2023-05-14T06:19:04;15.65;;;11.23;;
75916;SDS011;64595;50.148;14.334;2023-05-14T06:21:29;15.88;;;11.15;;
75916;SDS011;64595;50.148;14.334;2023-05-14T06:23:55;13.45;;;11.00;;
75916;SDS011;64595;50.148;14.334;2023-05-14T06:26:20;15.18;;;11.55;;
75916;SDS011;64595;50.148;14.334;2023-05-14T06:28:47;13.52;;;11.38;;
75916;SDS011;64595;50.148;14.334;2023-05-14T06:31:13;14.40;;;11.10;;
75916;SDS011;64595;50.148;14.334;2023-05-14T06:33:38;13.30;;;11.20;;
75916;SDS011;64595;50.148;14.334;2023-05-14T06:36:04;13.82;;;11.02;;
75916;SDS011;64595;50.148;14.334;2023-05-14T06:38:30;13.02;;;10.18;;
75916;SDS011;64595;50.148;14.334;2023-05-14T06:40:56;14.82;;;10.88;;
75916;SDS011;64595;50.148;14.334;2023-05-14T06:43:21;14.20;;;10.90;;
75916;SDS011;64595;50.148;14.334;2023-05-14T06:45:48;13.25;;;10.27;;
75916;SDS011;64595;50.148;14.334;2023-05-14T06:48:14;11.15;;;9.43;;
75916;SDS011;64595;50.148;14.334;2023-05-14T06:50:39;13.38;;;10.02;;
75916;SDS011;64595;50.148;14.334;2023-05-14T06:53:05;12.18;;;9.30;;
75916;SDS011;64595;50.148;14.334;2023-05-14T06:55:30;11.82;;;10.45;;
75916;SDS011;64595;50.148;14.334;2023-05-14T06:57:56;13.50;;;9.65;;
75916;SDS011;64595;50.148;14.334;2023-05-14T07:00:21;12.40;;;9.90;;
75916;SDS011;64595;50.148;14.334;2023-05-14T07:02:48;12.77;;;9.98;;
75916;SDS011;64595;50.148;14.334;2023-05-14T07:05:14;13.20;;;9.68;;
75916;SDS011;64595;50.148;14.334;2023-05-14T07:07:39;11.10;;;9.20;;
75916;SDS011;64595;50.148;14.334;2023-05-14T07:10:05;16.48;;;9.88;;
75916;SDS011;64595;50.148;14.334;2023-05-14T07:12:31;16.15;;;11.25;;
75916;SDS011;64595;50.148;14.334;2023-05-14T07:14:57;13.27;;;10.65;;
75916;SDS011;64595;50.148;14.334;2023-05-14T07:17:22;13.57;;;10.35;;
75916;SDS011;64595;50.148;14.334;2023-05-14T07:19:49;10.82;;;9.23;;
75916;SDS011;64595;50.148;14.334;2023-05-14T07:22:15;11.48;;;9.65;;
75916;SDS011;64595;50.148;14.334;2023-05-14T07:24:40;13.55;;;9.40;;
75916;SDS011;64595;50.148;14.334;2023-05-14T07:27:06;9.82;;;8.45;;
75916;SDS011;64595;50.148;14.334;2023-05-14T07:29:31;12.10;;;9.07;;
75916;SDS011;64595;50.148;14.334;2023-05-14T07:31:57;11.05;;;8.77;;
75916;SDS011;64595;50.148;14.334;2023-05-14T07:34:22;11.95;;;8.70;;
75916;SDS011;64595;50.148;14.334;2023-05-14T07:36:49;11.98;;;8.77;;
75916;SDS011;64595;50.148;14.334;2023-05-14T07:39:15;10.25;;;8.45;;
75916;SDS011;64595;50.148;14.334;2023-05-14T07:41:40;11.98;;;9.10;;
75916;SDS011;64595;50.148;14.334;2023-05-14T07:44:06;10.05;;;8.40;;
75916;SDS011;64595;50.148;14.334;2023-05-14T07:46:31;11.45;;;8.43;;
75916;SDS011;64595;50.148;14.334;2023-05-14T07:48:57;10.88;;;7.72;;
75916;SDS011;64595;50.148;14.334;2023-05-14T07:51:22;11.57;;;8.40;;
75916;SDS011;64595;50.148;14.334;2023-05-14T07:53:49;9.70;;;8.13;;
75916;SDS011;64595;50.148;14.334;2023-05-14T07:56:14;9.82;;;7.80;;
75916;SDS011;64595;50.148;14.334;2023-05-14T07:58:40;11.02;;;8.07;;
75916;SDS011;64595;50.148;14.334;2023-05-14T08:01:05;10.48;;;8.93;;
75916;SDS011;64595;50.148;14.334;2023-05-14T08:03:31;10.35;;;7.47;;
75916;SDS011;64595;50.148;14.334;2023-05-14T08:05:56;8.75;;;7.78;;
75916;SDS011;64595;50.148;14.334;2023-05-14T08:08:22;9.85;;;7.80;;
75916;SDS011;64595;50.148;14.334;2023-05-14T08:10:48;8.70;;;7.35;;
75916;SDS011;64595;50.148;14.334;2023-05-14T08:15:40;8.50;;;6.87;;
75916;SDS011;64595;50.148;14.334;2023-05-14T08:18:05;9.10;;;6.20;;
75916;SDS011;64595;50.148;14.334;2023-05-14T08:20:31;8.68;;;6.68;;
75916;SDS011;64595;50.148;14.334;2023-05-14T08:22:56;8.55;;;7.03;;
75916;SDS011;64595;50.148;14.334;2023-05-14T08:25:22;11.13;;;7.38;;
75916;SDS011;64595;50.148;14.334;2023-05-14T08:27:48;7.90;;;7.10;;
75916;SDS011;64595;50.148;14.334;2023-05-14T08:30:14;11.25;;;7.03;;
75916;SDS011;64595;50.148;14.334;2023-05-14T08:32:40;7.90;;;6.38;;
75916;SDS011;64595;50.148;14.334;2023-05-14T08:35:05;12.82;;;7.15;;
75916;SDS011;64595;50.148;14.334;2023-05-14T08:37:31;7.47;;;6.22;;
75916;SDS011;64595;50.148;14.334;2023-05-14T08:39:57;8.43;;;6.35;;
75916;SDS011;64595;50.148;14.334;2023-05-14T08:42:23;8.77;;;6.50;;
75916;SDS011;64595;50.148;14.334;2023-05-14T08:44:52;9.35;;;7.15;;
75916;SDS011;64595;50.148;14.334;2023-05-14T08:47:25;8.98;;;6.00;;
75916;SDS011;64595;50.148;14.334;2023-05-14T08:49:51;8.57;;;5.90;;
75916;SDS011;64595;50.148;14.334;2023-05-14T08:52:19;7.43;;;6.55;;
75916;SDS011;64595;50.148;14.334;2023-05-14T08:54:46;7.75;;;6.03;;
75916;SDS011;64595;50.148;14.334;2023-05-14T08:57:12;7.93;;;6.60;;
75916;SDS011;64595;50.148;14.334;2023-05-14T08:59:38;8.50;;;6.10;;
75916;SDS011;64595;50.148;14.334;2023-05-14T09:02:05;10.45;;;6.93;;
75916;SDS011;64595;50.148;14.334;2023-05-14T09:04:31;7.22;;;6.28;;
75916;SDS011;64595;50.148;14.334;2023-05-14T09:06:56;9.05;;;6.05;;
75916;SDS011;64595;50.148;14.334;2023-05-14T09:09:24;8.88;;;6.63;;
75916;SDS011;64595;50.148;14.334;2023-05-14T09:11:50;8.10;;;6.07;;
75916;SDS011;64595;50.148;14.334;2023-05-14T09:14:16;7.78;;;5.53;;
75916;SDS011;64595;50.148;14.334;2023-05-14T09:16:42;6.13;;;4.97;;
75916;SDS011;64595;50.148;14.334;2023-05-14T09:19:10;6.35;;;5.25;;
75916;SDS011;64595;50.148;14.334;2023-05-14T09:21:36;7.38;;;5.13;;
75916;SDS011;64595;50.148;14.334;2023-05-14T09:24:01;7.95;;;4.78;;
75916;SDS011;64595;50.148;14.334;2023-05-14T09:26:27;5.93;;;5.32;;
75916;SDS011;64595;50.148;14.334;2023-05-14T09:28:57;6.13;;;5.25;;
75916;SDS011;64595;50.148;14.334;2023-05-14T09:31:23;7.93;;;5.18;;
75916;SDS011;64595;50.148;14.334;2023-05-14T09:33:49;5.70;;;4.72;;
75916;SDS011;64595;50.148;14.334;2023-05-14T09:36:16;7.63;;;4.88;;
75916;SDS011;64595;50.148;14.334;2023-05-14T09:38:42;5.10;;;4.40;;
75916;SDS011;64595;50.148;14.334;2023-05-14T09:41:08;5.28;;;4.45;;
75916;SDS011;64595;50.148;14.334;2023-05-14T09:43:33;6.40;;;5.25;;
75916;SDS011;64595;50.148;14.334;2023-05-14T09:45:59;6.63;;;4.78;;
75916;SDS011;64595;50.148;14.334;2023-05-14T09:48:24;8.32;;;5.88;;
75916;SDS011;64595;50.148;14.334;2023-05-14T09:50:50;7.28;;;5.45;;
75916;SDS011;64595;50.148;14.334;2023-05-14T09:53:17;7.63;;;5.72;;
75916;SDS011;64595;50.148;14.334;2023-05-14T09:58:08;9.00;;;5.22;;
75916;SDS011;64595;50.148;14.334;2023-05-14T10:00:34;5.93;;;4.85;;
75916;SDS011;64595;50.148;14.334;2023-05-14T10:03:00;5.97;;;5.15;;
75916;SDS011;64595;50.148;14.334;2023-05-14T10:05:29;7.05;;;5.50;;
75916;SDS011;64595;50.148;14.334;2023-05-14T10:07:55;6.57;;;5.05;;
75916;SDS011;64595;50.148;14.334;2023-05-14T10:10:23;5.97;;;4.60;;
75916;SDS011;64595;50.148;14.334;2023-05-14T10:12:52;5.85;;;5.25;;
75916;SDS011;64595;50.148;14.334;2023-05-14T10:15:19;6.43;;;4.95;;
75916;SDS011;64595;50.148;14.334;2023-05-14T10:17:48;5.80;;;4.93;;
75916;SDS011;64595;50.148;14.334;2023-05-14T10:20:19;6.10;;;5.40;;
75916;SDS011;64595;50.148;14.334;2023-05-14T10:25:12;6.73;;;5.23;;
75916;SDS011;64595;50.148;14.334;2023-05-14T10:27:39;5.90;;;4.93;;
75916;SDS011;64595;50.148;14.334;2023-05-14T10:32:33;4.97;;;4.10;;
75916;SDS011;64595;50.148;14.334;2023-05-14T10:34:58;5.18;;;4.55;;
75916;SDS011;64595;50.148;14.334;2023-05-14T10:37:26;6.53;;;4.25;;
75916;SDS011;64595;50.148;14.334;2023-05-14T10:39:52;6.45;;;4.45;;
75916;SDS011;64595;50.148;14.334;2023-05-14T10:42:18;5.30;;;4.28;;
75916;SDS011;64595;50.148;14.334;2023-05-14T10:44:47;6.65;;;4.60;;
75916;SDS011;64595;50.148;14.334;2023-05-14T10:47:15;5.10;;;4.50;;
75916;SDS011;64595;50.148;14.334;2023-05-14T10:49:40;5.25;;;4.72;;
75916;SDS011;64595;50.148;14.334;2023-05-14T10:52:07;7.45;;;3.88;;
75916;SDS011;64595;50.148;14.334;2023-05-14T10:54:33;5.10;;;3.92;;
75916;SDS011;64595;50.148;14.334;2023-05-14T10:56:59;5.13;;;3.83;;
75916;SDS011;64595;50.148;14.334;2023-05-14T10:59:26;5.93;;;3.95;;
75916;SDS011;64595;50.148;14.334;2023-05-14T11:01:52;6.93;;;4.05;;
75916;SDS011;64595;50.148;14.334;2023-05-14T11:04:22;5.30;;;4.13;;
75916;SDS011;64595;50.148;14.334;2023-05-14T11:06:47;4.07;;;3.30;;
75916;SDS011;64595;50.148;14.334;2023-05-14T11:09:13;5.63;;;3.90;;
75916;SDS011;64595;50.148;14.334;2023-05-14T11:11:41;4.93;;;3.72;;
75916;SDS011;64595;50.148;14.334;2023-05-14T11:14:14;6.50;;;4.10;;
75916;SDS011;64595;50.148;14.334;2023-05-14T11:19:06;4.90;;;3.43;;
75916;SDS011;64595;50.148;14.334;2023-05-14T11:21:32;6.03;;;3.55;;
75916;SDS011;64595;50.148;14.334;2023-05-14T11:23:58;4.43;;;3.30;;
75916;SDS011;64595;50.148;14.334;2023-05-14T11:26:24;5.68;;;4.00;;
75916;SDS011;64595;50.148;14.334;2023-05-14T11:28:49;5.90;;;3.60;;
75916;SDS011;64595;50.148;14.334;2023-05-14T11:31:14;3.72;;;3.33;;
75916;SDS011;64595;50.148;14.334;2023-05-14T11:33:40;5.88;;;3.78;;
75916;SDS011;64595;50.148;14.334;2023-05-14T11:36:08;4.35;;;3.28;;
75916;SDS011;64595;50.148;14.334;2023-05-14T11:38:34;5.07;;;3.35;;
75916;SDS011;64595;50.148;14.334;2023-05-14T11:41:10;4.85;;;3.60;;
75916;SDS011;64595;50.148;14.334;2023-05-14T11:43:38;7.05;;;3.63;;
75916;SDS011;64595;50.148;14.334;2023-05-14T11:46:03;5.93;;;3.65;;
75916;SDS011;64595;50.148;14.334;2023-05-14T11:48:30;6.03;;;3.35;;
75916;SDS011;64595;50.148;14.334;2023-05-14T11:50:57;5.53;;;3.38;;
75916;SDS011;64595;50.148;14.334;2023-05-14T11:53:25;4.30;;;3.45;;
75916;SDS011;64595;50.148;14.334;2023-05-14T11:55:51;3.42;;;2.97;;
75916;SDS011;64595;50.148;14.334;2023-05-14T11:58:17;4.88;;;3.47;;
75916;SDS011;64595;50.148;14.334;2023-05-14T12:00:43;4.00;;;3.58;;
75916;SDS011;64595;50.148;14.334;2023-05-14T12:03:08;4.25;;;3.38;;
75916;SDS011;64595;50.148;14.334;2023-05-14T12:05:36;4.53;;;3.60;;
75916;SDS011;64595;50.148;14.334;2023-05-14T12:08:01;4.13;;;3.20;;
75916;SDS011;64595;50.148;14.334;2023-05-14T12:10:28;4.80;;;3.45;;
75916;SDS011;64595;50.148;14.334;2023-05-14T12:12:54;11.18;;;3.83;;
75916;SDS011;64595;50.148;14.334;2023-05-14T12:15:19;6.25;;;4.32;;
75916;SDS011;64595;50.148;14.334;2023-05-14T12:17:48;5.03;;;3.60;;
75916;SDS011;64595;50.148;14.334;2023-05-14T12:20:14;7.72;;;3.42;;
75916;SDS011;64595;50.148;14.334;2023-05-14T12:22:40;7.95;;;3.28;;
75916;SDS011;64595;50.148;14.334;2023-05-14T12:25:09;5.07;;;3.33;;
75916;SDS011;64595;50.148;14.334;2023-05-14T12:27:37;3.78;;;3.00;;
75916;SDS011;64595;50.148;14.334;2023-05-14T12:30:03;4.07;;;2.85;;
75916;SDS011;64595;50.148;14.334;2023-05-14T12:32:30;5.55;;;2.80;;
75916;SDS011;64595;50.148;14.334;2023-05-14T12:34:55;3.30;;;2.60;;
75916;SDS011;64595;50.148;14.334;2023-05-14T12:37:21;4.82;;;2.33;;
75916;SDS011;64595;50.148;14.334;2023-05-14T12:39:46;3.80;;;2.63;;
75916;SDS011;64595;50.148;14.334;2023-05-14T12:42:13;3.58;;;2.47;;
75916;SDS011;64595;50.148;14.334;2023-05-14T12:44:40;3.40;;;2.80;;
75916;SDS011;64595;50.148;14.334;2023-05-14T12:47:05;3.15;;;2.38;;
75916;SDS011;64595;50.148;14.334;2023-05-14T12:49:31;3.20;;;2.60;;
75916;SDS011;64595;50.148;14.334;2023-05-14T12:51:56;3.17;;;2.60;;
75916;SDS011;64595;50.148;14.334;2023-05-14T12:54:22;3.55;;;2.55;;
75916;SDS011;64595;50.148;14.334;2023-05-14T12:56:47;3.30;;;2.47;;
75916;SDS011;64595;50.148;14.334;2023-05-14T12:59:13;4.15;;;2.90;;
75916;SDS011;64595;50.148;14.334;2023-05-14T13:01:40;6.30;;;2.92;;
75916;SDS011;64595;50.148;14.334;2023-05-14T13:04:06;4.38;;;2.75;;
75916;SDS011;64595;50.148;14.334;2023-05-14T13:06:31;6.03;;;2.90;;
75916;SDS011;64595;50.148;14.334;2023-05-14T13:08:57;4.90;;;2.80;;
75916;SDS011;64595;50.148;14.334;2023-05-14T13:11:22;3.40;;;2.60;;
75916;SDS011;64595;50.148;14.334;2023-05-14T13:13:48;5.30;;;2.67;;
75916;SDS011;64595;50.148;14.334;2023-05-14T13:16:13;3.90;;;2.90;;
75916;SDS011;64595;50.148;14.334;2023-05-14T13:18:40;3.28;;;2.60;;
75916;SDS011;64595;50.148;14.334;2023-05-14T13:21:06;4.35;;;3.00;;
75916;SDS011;64595;50.148;14.334;2023-05-14T13:23:31;3.55;;;2.70;;
75916;SDS011;64595;50.148;14.334;2023-05-14T13:25:57;3.65;;;2.65;;
75916;SDS011;64595;50.148;14.334;2023-05-14T13:28:22;2.83;;;2.42;;
75916;SDS011;64595;50.148;14.334;2023-05-14T13:31:01;4.15;;;2.80;;
75916;SDS011;64595;50.148;14.334;2023-05-14T13:33:28;4.43;;;2.58;;
75916;SDS011;64595;50.148;14.334;2023-05-14T13:35:55;4.13;;;2.35;;
75916;SDS011;64595;50.148;14.334;2023-05-14T13:38:20;3.45;;;2.70;;
75916;SDS011;64595;50.148;14.334;2023-05-14T13:40:46;4.20;;;2.70;;
75916;SDS011;64595;50.148;14.334;2023-05-14T13:43:11;4.80;;;3.00;;
75916;SDS011;64595;50.148;14.334;2023-05-14T13:45:37;3.95;;;2.63;;
75916;SDS011;64595;50.148;14.334;2023-05-14T13:48:02;6.45;;;2.70;;
75916;SDS011;64595;50.148;14.334;2023-05-14T13:50:28;4.65;;;2.78;;
75916;SDS011;64595;50.148;14.334;2023-05-14T13:52:57;4.20;;;3.00;;
75916;SDS011;64595;50.148;14.334;2023-05-14T13:55:27;3.42;;;2.72;;
75916;SDS011;64595;50.148;14.334;2023-05-14T13:57:55;5.00;;;2.70;;
75916;SDS011;64595;50.148;14.334;2023-05-14T14:00:21;3.15;;;2.78;;
75916;SDS011;64595;50.148;14.334;2023-05-14T14:02:47;3.38;;;2.70;;
75916;SDS011;64595;50.148;14.334;2023-05-14T14:05:12;3.70;;;2.92;;
75916;SDS011;64595;50.148;14.334;2023-05-14T14:07:39;4.03;;;2.78;;
75916;SDS011;64595;50.148;14.334;2023-05-14T14:10:09;3.75;;;2.60;;
75916;SDS011;64595;50.148;14.334;2023-05-14T14:12:37;3.95;;;3.05;;
75916;SDS011;64595;50.148;14.334;2023-05-14T14:15:06;3.75;;;3.03;;
75916;SDS011;64595;50.148;14.334;2023-05-14T14:17:34;5.55;;;2.70;;
75916;SDS011;64595;50.148;14.334;2023-05-14T14:20:00;3.20;;;2.55;;
75916;SDS011;64595;50.148;14.334;2023-05-14T14:22:26;4.32;;;2.97;;
75916;SDS011;64595;50.148;14.334;2023-05-14T14:24:52;5.10;;;2.92;;
75916;SDS011;64595;50.148;14.334;2023-05-14T14:27:21;3.47;;;2.72;;
75916;SDS011;64595;50.148;14.334;2023-05-14T14:29:50;5.05;;;2.85;;
75916;SDS011;64595;50.148;14.334;2023-05-14T14:32:17;4.10;;;3.17;;